»·PEaware :: N441PW PACY-CYDB

N441PW :: PACY-CYDB

FLIGHT INFORMATION

Flight Status: Arrived
Operator: Privately registered:
United States
More flights under this callsign
Pilot: Stacy K. (11621)
Aircraft: CESSNA 404 TITAN
(C404)
More flights by this aircraft type
Origin: PACY Yakataga
United States
Destination: CYDB Burwash
Canada
More flights between these airports :: More routes between these airports
Route:
File this flight plan on PilotEdge
Remarks:
Altitude:
(Current/Filed)
17,500ft
Speed:
(Current/Filed)
180kts
Departed: 09-Apr-18 04:24 PM
Arrived: 09-Apr-18 06:24 PM
Distance/Time
Traveled:
128nm/2:00
Distance/Time
To Go:
Arrived

Flight Plot

Page will automatically refresh every two minutes.

Flight plan parsing failed; only flown route is shown


Map Options




Map Legend


Flown Route
Filed Route
Departure Airport
Arrival Airport
Navaid (VOR, NDB)
Fix

Horizontal Profiles

Position Reports

Time Latitude Longitude Heading Altitude Ground
Speed
09-Apr-18 15:58 60.080269 -142.485186 227 16ft 0kts
09-Apr-18 15:59 60.080269 -142.485186 227 16ft 0kts
09-Apr-18 16:00 60.080269 -142.485186 227 16ft 0kts
09-Apr-18 16:01 60.080269 -142.485186 227 16ft 0kts
09-Apr-18 16:02 60.080269 -142.485186 227 16ft 0kts
09-Apr-18 16:03 60.080269 -142.485186 227 16ft 0kts
09-Apr-18 16:04 60.080269 -142.485186 227 16ft 0kts
09-Apr-18 16:05 60.080269 -142.485186 227 16ft 0kts
09-Apr-18 16:06 60.080269 -142.485186 227 16ft 0kts
09-Apr-18 16:07 60.080269 -142.485186 227 16ft 0kts
09-Apr-18 16:08 60.080269 -142.485186 227 16ft 0kts
09-Apr-18 16:09 60.080269 -142.485186 227 16ft 0kts
09-Apr-18 16:10 60.080269 -142.485186 227 16ft 0kts
09-Apr-18 16:11 60.080269 -142.485186 227 16ft 0kts
09-Apr-18 16:12 60.080269 -142.485186 227 16ft 0kts
09-Apr-18 16:13 60.080269 -142.485186 227 16ft 0kts
09-Apr-18 16:14 60.080269 -142.485186 227 16ft 0kts
09-Apr-18 16:15 60.080269 -142.485186 227 16ft 0kts
09-Apr-18 16:16 60.080269 -142.485186 227 16ft 0kts
09-Apr-18 16:17 60.080269 -142.485186 227 16ft 0kts
09-Apr-18 16:18 60.080269 -142.485187 227 16ft 0kts
09-Apr-18 16:19 60.080269 -142.485188 227 16ft 0kts
09-Apr-18 16:20 60.080253 -142.489365 280 16ft 30kts
09-Apr-18 16:21 60.081992 -142.507023 124 16ft 3kts
09-Apr-18 16:22 60.081955 -142.506856 99 16ft 0kts
09-Apr-18 16:23 60.081185 -142.499060 102 17ft 84kts
09-Apr-18 16:24 60.065717 -142.437732 114 688ft 143kts
09-Apr-18 16:25 60.056970 -142.356540 98 548ft 153kts
09-Apr-18 16:26 60.048548 -142.273960 101 539ft 145kts
09-Apr-18 16:27 60.038848 -142.196883 102 711ft 140kts
09-Apr-18 16:28 60.028820 -142.120310 109 710ft 149kts
09-Apr-18 16:29 60.015831 -142.042815 101 811ft 143kts
09-Apr-18 16:30 60.004586 -141.960147 110 983ft 166kts
09-Apr-18 16:31 59.986304 -141.875105 115 1037ft 174kts
09-Apr-18 16:32 59.968038 -141.792403 113 1245ft 146kts
09-Apr-18 16:33 59.961230 -141.723884 88 449ft 111kts
09-Apr-18 16:34 59.965235 -141.668410 80 29ft 87kts
09-Apr-18 16:35 59.966600 -141.652153 118 30ft 5kts
09-Apr-18 16:36 59.966599 -141.651901 336 30ft 0kts
09-Apr-18 16:37 59.966600 -141.651901 336 30ft 0kts
09-Apr-18 16:38 59.966576 -141.655285 261 30ft 13kts
09-Apr-18 16:39 59.965014 -141.669808 261 28ft 12kts
09-Apr-18 16:40 59.965485 -141.664454 75 30ft 84kts
09-Apr-18 16:41 59.983596 -141.681370 273 689ft 186kts
09-Apr-18 16:42 59.983989 -141.781769 268 1543ft 174kts
09-Apr-18 16:43 59.991892 -141.877682 284 2264ft 186kts
09-Apr-18 16:44 60.008041 -141.978438 286 1953ft 214kts
09-Apr-18 16:45 60.023755 -142.087554 293 1242ft 191kts
09-Apr-18 16:46 60.012970 -142.164572 182 1188ft 165kts
09-Apr-18 16:47 60.008560 -142.110894 40 1197ft 159kts
09-Apr-18 17:16 60.080269 -142.485186 227 16ft 0kts
09-Apr-18 17:17 60.080269 -142.485186 227 16ft 0kts
09-Apr-18 17:18 60.080186 -142.489173 282 16ft 28kts
09-Apr-18 17:19 60.081309 -142.500311 279 16ft 15kts
09-Apr-18 17:20 60.080684 -142.493167 100 17ft 87kts
09-Apr-18 17:21 60.064240 -142.435015 109 768ft 155kts
09-Apr-18 17:22 60.045507 -142.348325 123 801ft 173kts
09-Apr-18 17:23 60.001406 -142.317809 133 806ft 172kts
09-Apr-18 17:24 60.000074 -142.227422 76 806ft 171kts
09-Apr-18 17:25 60.012129 -142.138144 80 806ft 163kts
09-Apr-18 17:26 60.014032 -142.048223 85 809ft 160kts
09-Apr-18 17:27 60.009501 -141.959646 102 812ft 165kts
09-Apr-18 17:28 59.991701 -141.875209 129 817ft 166kts
09-Apr-18 17:29 59.969628 -141.801537 113 839ft 152kts
09-Apr-18 17:30 59.960440 -141.731016 90 430ft 110kts
09-Apr-18 17:31 59.964553 -141.674526 79 52ft 89kts
09-Apr-18 17:32 59.966586 -141.651897 43 30ft 2kts
09-Apr-18 17:33 59.966603 -141.651883 13 30ft 0kts
09-Apr-18 17:34 59.966603 -141.651882 13 30ft 0kts
09-Apr-18 17:35 59.966764 -141.653465 264 30ft 10kts
09-Apr-18 17:36 59.965368 -141.666578 249 29ft 30kts
09-Apr-18 17:37 59.964818 -141.671668 81 28ft 43kts
09-Apr-18 17:38 59.967565 -141.611442 88 797ft 142kts
09-Apr-18 17:39 59.974051 -141.527289 73 1825ft 160kts
09-Apr-18 17:40 60.000160 -141.453811 49 2830ft 167kts
09-Apr-18 17:41 60.015843 -141.368608 86 3833ft 172kts
09-Apr-18 17:42 60.023513 -141.275396 48 4824ft 174kts
09-Apr-18 17:43 60.070430 -141.263655 346 5847ft 179kts
09-Apr-18 17:44 60.118081 -141.294388 340 6847ft 183kts
09-Apr-18 17:45 60.148308 -141.259319 84 7697ft 175kts
09-Apr-18 17:46 60.119060 -141.215845 215 8704ft 182kts
09-Apr-18 17:47 60.142378 -141.293387 358 9889ft 191kts
09-Apr-18 17:48 60.196437 -141.301949 359 10699ft 199kts
09-Apr-18 17:49 60.252161 -141.303231 1 11402ft 201kts
09-Apr-18 17:50 60.307353 -141.286749 18 12103ft 201kts
09-Apr-18 17:51 60.352515 -141.224166 52 12809ft 200kts
09-Apr-18 17:52 60.381813 -141.128321 63 13513ft 201kts
09-Apr-18 17:53 60.393388 -141.018881 85 14217ft 200kts
09-Apr-18 17:54 60.395755 -140.924967 90 14803ft 201kts
09-Apr-18 17:55 60.399577 -140.811759 80 15506ft 205kts
09-Apr-18 17:56 60.409395 -140.698531 85 16209ft 203kts
09-Apr-18 17:57 60.417185 -140.598996 82 16824ft 203kts
09-Apr-18 17:58 60.436617 -140.491078 68 17441ft 208kts
09-Apr-18 17:59 60.466879 -140.384096 58 17476ft 226kts
09-Apr-18 18:00 60.502939 -140.279427 53 17498ft 226kts
09-Apr-18 18:01 60.549531 -140.194305 32 17503ft 227kts
09-Apr-18 18:02 60.605782 -140.135781 27 17492ft 227kts
09-Apr-18 18:03 60.659918 -140.069511 34 17496ft 226kts
09-Apr-18 18:04 60.713760 -140.001627 30 17485ft 227kts
09-Apr-18 18:05 60.768225 -139.934737 26 17487ft 228kts
09-Apr-18 18:06 60.823410 -139.872198 24 17476ft 225kts
09-Apr-18 18:07 60.879121 -139.813357 25 17475ft 226kts
09-Apr-18 18:08 60.935743 -139.760065 20 17468ft 224kts
09-Apr-18 18:09 60.995514 -139.708572 15 16734ft 240kts
09-Apr-18 18:10 61.058254 -139.658290 21 15752ft 242kts
09-Apr-18 18:11 61.122253 -139.621180 6 14742ft 231kts
09-Apr-18 18:12 61.184098 -139.615446 355 13599ft 219kts
09-Apr-18 18:13 61.243692 -139.634013 343 12195ft 213kts
09-Apr-18 18:14 61.300921 -139.657111 343 10916ft 208kts
09-Apr-18 18:15 61.355279 -139.629420 28 9547ft 207kts
09-Apr-18 18:16 61.401162 -139.567274 37 8787ft 190kts
09-Apr-18 18:17 61.441654 -139.498719 43 8087ft 185kts
09-Apr-18 18:18 61.468294 -139.412436 92 7359ft 183kts
09-Apr-18 18:19 61.458130 -139.309221 112 6800ft 177kts
09-Apr-18 18:20 61.432410 -139.215394 122 6007ft 190kts
09-Apr-18 18:21 61.403472 -139.130534 121 4453ft 160kts
09-Apr-18 18:22 61.378830 -139.061171 126 2866ft 122kts
09-Apr-18 18:23 61.368725 -139.032763 50 2644ft 7kts
09-Apr-18 18:24 61.369482 -139.031545 125 2641ft 0kts
09-Apr-18 18:25 61.369482 -139.031543 125 2641ft 0kts
09-Apr-18 18:26 61.369482 -139.031543 125 2641ft 0kts
09-Apr-18 18:27 61.369482 -139.031543 125 2641ft 0kts
09-Apr-18 18:28 61.369482 -139.031543 125 2641ft 0kts
09-Apr-18 18:29 61.369482 -139.031543 125 2641ft 0kts
09-Apr-18 18:30 61.369482 -139.031543 125 2641ft 0kts
09-Apr-18 18:31 61.369482 -139.031543 125 2641ft 0kts
09-Apr-18 18:32 61.369482 -139.031543 125 2641ft 0kts
09-Apr-18 18:33 61.369482 -139.031543 125 2640ft 0kts
09-Apr-18 18:34 61.369482 -139.031543 125 2640ft 0kts
09-Apr-18 18:35 61.369482 -139.031543 125 2640ft 0kts
09-Apr-18 18:36 61.369482 -139.031543 125 2640ft 0kts
09-Apr-18 18:37 61.369482 -139.031543 125 2640ft 0kts

Navigation Log

Ident Type
Flight plan parsing failed, navigation log unavailable